createdAt,value
2019-06-20T00:00:12.935Z,24.30
2019-06-20T00:02:45.195Z,24.20
2019-06-20T00:05:17.437Z,24.20
2019-06-20T00:07:49.545Z,24.20
2019-06-20T00:10:21.613Z,24.30
2019-06-20T00:13:00.485Z,24.20
2019-06-20T00:15:27.199Z,24.20
2019-06-20T00:17:59.769Z,24.20
2019-06-20T00:20:31.677Z,24.20
2019-06-20T00:23:03.576Z,24.10
2019-06-20T00:28:08.482Z,24.00
2019-06-20T00:30:40.232Z,23.90
2019-06-20T00:33:12.469Z,23.90
2019-06-20T00:35:44.448Z,23.90
2019-06-20T00:38:16.424Z,24.00
2019-06-20T00:40:48.364Z,24.00
2019-06-20T00:43:20.465Z,24.10
2019-06-20T00:45:52.574Z,24.10
2019-06-20T00:48:24.814Z,24.00
2019-06-20T00:50:57.700Z,24.00
2019-06-20T00:53:30.191Z,24.00
2019-06-20T00:56:03.632Z,24.00
2019-06-20T00:58:35.980Z,23.90
2019-06-20T01:01:08.070Z,24.00
2019-06-20T01:03:39.741Z,23.90
2019-06-20T01:06:12.007Z,23.90
2019-06-20T01:08:43.941Z,23.90
2019-06-20T01:11:15.919Z,23.70
2019-06-20T01:13:47.887Z,23.60
2019-06-20T01:16:19.852Z,23.50
2019-06-20T01:18:51.529Z,23.40
2019-06-20T01:21:23.162Z,23.40
2019-06-20T01:23:55.569Z,23.20
2019-06-20T01:26:28.142Z,23.10
2019-06-20T01:29:00.071Z,22.80
2019-06-20T01:31:32.008Z,22.70
2019-06-20T01:34:04.078Z,22.50
2019-06-20T01:36:36.108Z,22.40
2019-06-20T01:39:08.673Z,22.10
2019-06-20T01:41:40.644Z,22.00
2019-06-20T01:44:13.125Z,21.80
2019-06-20T01:46:45.081Z,21.70
2019-06-20T01:49:16.747Z,21.70
2019-06-20T01:51:48.735Z,21.40
2019-06-20T01:54:21.476Z,21.40
2019-06-20T01:56:53.413Z,21.40
2019-06-20T01:59:25.310Z,21.20
2019-06-20T02:01:57.434Z,21.20
2019-06-20T02:04:29.850Z,21.20
2019-06-20T02:07:02.027Z,21.20
2019-06-20T02:09:33.949Z,21.20
2019-06-20T02:12:05.637Z,21.10
2019-06-20T02:14:37.863Z,21.10
2019-06-20T02:17:09.790Z,21.10
2019-06-20T02:19:41.979Z,20.90
2019-06-20T02:22:13.896Z,21.00
2019-06-20T02:24:46.204Z,21.00
2019-06-20T02:27:19.672Z,21.00
2019-06-20T02:29:51.748Z,20.80
2019-06-20T02:32:23.735Z,20.80
2019-06-20T02:34:56.504Z,20.90
2019-06-20T02:37:28.415Z,21.00
2019-06-20T02:40:00.496Z,20.90
2019-06-20T02:42:32.742Z,20.90
2019-06-20T02:45:04.783Z,20.80
2019-06-20T02:47:36.751Z,20.80
2019-06-20T02:50:10.359Z,20.90
2019-06-20T02:52:43.460Z,20.90
2019-06-20T02:55:15.908Z,20.90
2019-06-20T02:57:47.623Z,20.70
2019-06-20T03:00:34.076Z,20.60
2019-06-20T03:03:05.986Z,20.50
2019-06-20T03:05:38.227Z,20.50
2019-06-20T03:08:09.856Z,20.40
2019-06-20T03:10:41.604Z,20.40
2019-06-20T03:13:13.710Z,20.40
2019-06-20T03:15:45.944Z,20.40
2019-06-20T03:18:18.333Z,20.30
2019-06-20T03:20:50.605Z,20.20
2019-06-20T03:23:22.503Z,20.20
2019-06-20T03:25:55.072Z,20.00
2019-06-20T03:28:27.111Z,19.90
2019-06-20T03:30:59.062Z,19.90
2019-06-20T03:33:31.135Z,20.00
2019-06-20T03:36:03.322Z,20.00
2019-06-20T03:38:35.271Z,20.10
2019-06-20T03:41:07.231Z,20.20
2019-06-20T03:43:49.710Z,20.20
2019-06-20T03:46:21.502Z,20.10
2019-06-20T03:48:53.771Z,20.20
2019-06-20T03:51:26.039Z,20.30
2019-06-20T03:53:57.990Z,20.40
2019-06-20T03:56:30.605Z,20.50
2019-06-20T03:59:02.565Z,20.60
2019-06-20T04:01:34.904Z,20.60
2019-06-20T04:04:07.441Z,20.70
2019-06-20T04:06:40.690Z,20.80
2019-06-20T04:09:13.119Z,20.90
2019-06-20T04:11:45.415Z,20.80
2019-06-20T04:14:17.852Z,20.90
2019-06-20T04:16:49.545Z,20.90
2019-06-20T04:19:22.117Z,21.00
2019-06-20T04:21:54.099Z,21.10
2019-06-20T04:24:27.977Z,21.20
2019-06-20T04:27:00.306Z,21.40
2019-06-20T04:29:35.785Z,21.50
2019-06-20T04:32:06.171Z,21.50
2019-06-20T04:34:38.579Z,21.60
2019-06-20T04:37:10.519Z,21.60
2019-06-20T04:39:42.491Z,21.70
2019-06-20T04:42:18.490Z,21.70
2019-06-20T04:44:51.218Z,21.80
2019-06-20T04:47:23.302Z,21.80
2019-06-20T04:49:55.534Z,21.90
2019-06-20T04:52:27.787Z,22.00
2019-06-20T04:54:59.846Z,22.00
2019-06-20T04:57:32.189Z,22.10
2019-06-20T05:00:05.192Z,22.00
2019-06-20T05:02:37.130Z,22.20
2019-06-20T05:05:09.631Z,22.30
2019-06-20T05:07:41.690Z,22.40
2019-06-20T05:10:14.460Z,22.50
2019-06-20T05:12:46.582Z,22.70
2019-06-20T05:15:18.705Z,22.80
2019-06-20T05:17:50.926Z,23.00
2019-06-20T05:20:23.647Z,23.20
2019-06-20T05:22:55.409Z,23.30
2019-06-20T05:25:27.178Z,23.20
2019-06-20T05:27:58.885Z,23.30
2019-06-20T05:30:30.690Z,23.50
2019-06-20T05:33:02.493Z,23.50
2019-06-20T05:35:34.234Z,23.60
2019-06-20T05:38:06.241Z,23.70
2019-06-20T05:40:38.668Z,23.70
2019-06-20T05:43:11.032Z,23.70
2019-06-20T05:45:46.205Z,23.60
2019-06-20T05:48:16.310Z,23.60
2019-06-20T05:50:48.616Z,23.60
2019-06-20T05:53:21.035Z,23.70
2019-06-20T05:55:53.116Z,23.70
2019-06-20T05:58:25.073Z,23.70
2019-06-20T06:00:56.730Z,23.80
2019-06-20T06:03:28.695Z,23.80
2019-06-20T06:06:00.885Z,23.70
2019-06-20T06:08:34.048Z,23.90
2019-06-20T06:11:06.457Z,23.80
2019-06-20T06:13:39.106Z,23.70
2019-06-20T06:16:25.367Z,23.70
2019-06-20T06:18:44.725Z,23.80
2019-06-20T06:21:17.373Z,23.80
2019-06-20T06:23:49.461Z,23.70
2019-06-20T06:26:21.839Z,23.70
2019-06-20T06:28:53.683Z,23.70
2019-06-20T06:31:25.995Z,23.50
2019-06-20T06:33:58.137Z,23.00
2019-06-20T06:36:30.471Z,21.50
2019-06-20T06:39:04.595Z,21.10
2019-06-20T06:41:36.577Z,20.70
2019-06-20T06:44:08.761Z,20.50
2019-06-20T06:46:47.128Z,20.40
2019-06-20T06:49:14.807Z,20.20
2019-06-20T06:51:47.391Z,20.20
2019-06-20T06:54:19.755Z,20.10
2019-06-20T06:56:51.755Z,20.10
2019-06-20T06:59:23.540Z,20.10
2019-06-20T07:01:55.219Z,20.10
2019-06-20T07:04:27.008Z,20.20
2019-06-20T07:06:58.992Z,20.20
2019-06-20T07:09:30.721Z,20.20
2019-06-20T07:12:02.571Z,20.10
2019-06-20T07:14:34.562Z,20.10
2019-06-20T07:17:06.524Z,19.90
2019-06-20T07:19:45.210Z,19.70
2019-06-20T07:22:17.125Z,19.80
2019-06-20T07:24:49.097Z,20.00
2019-06-20T07:27:21.039Z,20.20
2019-06-20T07:29:52.694Z,20.40
2019-06-20T07:32:24.402Z,20.70
2019-06-20T07:34:56.734Z,20.70
2019-06-20T07:37:28.415Z,20.70
2019-06-20T07:40:00.206Z,20.80
2019-06-20T07:42:32.152Z,20.90
2019-06-20T07:45:04.929Z,20.80
2019-06-20T07:47:37.165Z,20.70
2019-06-20T07:50:09.751Z,20.70
2019-06-20T07:52:41.865Z,20.60
2019-06-20T07:55:14.094Z,20.60
2019-06-20T07:57:46.313Z,20.80
2019-06-20T08:00:18.790Z,20.60
2019-06-20T08:02:50.562Z,20.70
2019-06-20T08:05:22.673Z,20.80
2019-06-20T08:07:54.332Z,20.90
2019-06-20T08:10:26.308Z,20.80
2019-06-20T08:12:57.960Z,20.80
2019-06-20T08:15:29.655Z,20.90
2019-06-20T08:18:01.414Z,20.90
2019-06-20T08:20:33.285Z,20.90
2019-06-20T08:23:07.871Z,21.10
2019-06-20T08:25:39.629Z,21.40
2019-06-20T08:28:11.694Z,21.30
2019-06-20T08:30:43.555Z,21.30
2019-06-20T08:33:15.259Z,21.50
2019-06-20T08:35:47.255Z,21.50
2019-06-20T08:38:18.983Z,21.70
2019-06-20T08:40:50.741Z,21.60
2019-06-20T08:43:22.375Z,21.60
2019-06-20T08:45:56.112Z,21.60
2019-06-20T08:48:27.704Z,21.80
2019-06-20T08:51:00.096Z,22.00
2019-06-20T08:53:32.335Z,22.30
2019-06-20T08:56:05.492Z,22.40
2019-06-20T08:58:37.421Z,22.30
2019-06-20T09:01:09.258Z,22.30
2019-06-20T09:03:41.250Z,22.20
2019-06-20T09:06:13.170Z,22.30
2019-06-20T09:08:45.021Z,22.40
2019-06-20T09:11:16.984Z,22.10
2019-06-20T09:13:48.837Z,22.30
2019-06-20T09:16:24.615Z,22.40
2019-06-20T09:18:55.341Z,22.10
2019-06-20T09:21:28.711Z,21.90
2019-06-20T09:24:00.552Z,22.00
2019-06-20T09:26:32.726Z,22.00
2019-06-20T09:29:04.688Z,22.00
2019-06-20T09:31:36.906Z,21.60
2019-06-20T09:34:08.959Z,21.80
2019-06-20T09:36:41.473Z,21.90
2019-06-20T09:39:13.716Z,22.10
2019-06-20T09:41:46.185Z,22.30
2019-06-20T09:46:52.446Z,22.60
2019-06-20T09:49:24.258Z,22.60
2019-06-20T09:51:56.711Z,22.60
2019-06-20T09:54:28.791Z,22.70
2019-06-20T09:57:01.102Z,22.80
2019-06-20T09:59:33.454Z,22.60
2019-06-20T10:02:06.302Z,22.80
2019-06-20T10:04:38.618Z,22.90
2019-06-20T10:07:10.839Z,23.00
2019-06-20T10:09:43.038Z,23.20
2019-06-20T10:12:15.267Z,23.40
2019-06-20T10:14:48.096Z,23.50
2019-06-20T10:17:21.525Z,23.50
2019-06-20T10:19:54.740Z,23.60
2019-06-20T10:22:27.135Z,23.60
2019-06-20T10:24:59.165Z,23.70
2019-06-20T10:27:31.684Z,23.80
2019-06-20T10:30:13.841Z,23.70
2019-06-20T10:35:12.699Z,24.00
2019-06-20T10:37:45.573Z,23.80
2019-06-20T10:40:19.651Z,23.90
2019-06-20T10:42:53.028Z,23.90
2019-06-20T10:45:26.133Z,23.90
2019-06-20T10:47:58.244Z,24.30
2019-06-20T10:50:30.573Z,24.30
2019-06-20T10:53:03.363Z,24.10
2019-06-20T10:55:35.851Z,24.10
2019-06-20T10:58:07.915Z,24.20
2019-06-20T11:00:41.419Z,24.30
2019-06-20T11:03:13.921Z,24.60
2019-06-20T11:05:45.963Z,24.50
2019-06-20T11:08:18.285Z,24.30
2019-06-20T11:10:50.167Z,24.60
2019-06-20T11:13:22.422Z,24.60
2019-06-20T11:15:54.615Z,25.00
2019-06-20T11:18:26.738Z,24.90
2019-06-20T11:20:59.929Z,24.90
2019-06-20T11:23:31.999Z,25.00
2019-06-20T11:26:04.095Z,25.00
2019-06-20T11:28:37.716Z,24.80
2019-06-20T11:31:10.206Z,25.00
2019-06-20T11:33:44.093Z,24.90
2019-06-20T11:36:16.175Z,25.30
2019-06-20T11:38:49.177Z,25.60
2019-06-20T11:41:21.514Z,25.50
2019-06-20T11:43:54.259Z,25.70
2019-06-20T11:46:26.434Z,25.90
2019-06-20T11:49:05.802Z,25.90
2019-06-20T11:51:37.788Z,26.20
2019-06-20T11:54:10.414Z,26.60
2019-06-20T11:56:43.045Z,26.40
2019-06-20T11:59:15.070Z,26.00
2019-06-20T12:04:21.385Z,25.60
2019-06-20T12:06:53.497Z,25.60
2019-06-20T12:09:25.879Z,25.40
2019-06-20T12:11:57.857Z,25.50
2019-06-20T12:14:30.153Z,25.80
2019-06-20T12:17:02.058Z,25.90
2019-06-20T12:19:34.359Z,25.60
2019-06-20T12:22:07.219Z,25.60
2019-06-20T12:24:39.992Z,25.60
2019-06-20T12:27:13.068Z,25.80
2019-06-20T12:29:46.502Z,26.40
2019-06-20T12:32:20.636Z,26.70
2019-06-20T12:34:53.102Z,26.40
2019-06-20T12:37:25.007Z,26.20
2019-06-20T12:39:57.486Z,26.20
2019-06-20T12:42:29.498Z,26.10
2019-06-20T12:45:04.818Z,26.00
2019-06-20T12:47:38.372Z,25.80
2019-06-20T12:50:11.456Z,25.90
2019-06-20T12:52:45.421Z,26.20
2019-06-20T12:55:17.844Z,26.30
2019-06-20T12:57:49.848Z,26.60
2019-06-20T13:00:22.992Z,26.80
2019-06-20T13:02:57.301Z,26.70
2019-06-20T13:05:29.661Z,26.70
2019-06-20T13:08:02.667Z,26.80
2019-06-20T13:10:36.118Z,26.90
2019-06-20T13:13:08.202Z,26.60
2019-06-20T13:15:40.680Z,26.00
2019-06-20T13:18:13.097Z,25.90
2019-06-20T13:20:46.364Z,26.00
2019-06-20T13:23:19.696Z,26.10
2019-06-20T13:25:52.099Z,25.80
2019-06-20T13:28:24.501Z,25.50
2019-06-20T13:30:56.716Z,25.60
2019-06-20T13:33:28.645Z,25.70
2019-06-20T13:36:01.005Z,25.50
2019-06-20T13:38:33.069Z,25.50
2019-06-20T13:41:05.276Z,25.40
2019-06-20T13:43:37.189Z,25.50
2019-06-20T13:46:10.306Z,25.60
2019-06-20T13:48:43.971Z,25.40
2019-06-20T13:51:17.002Z,25.40
2019-06-20T13:53:48.958Z,25.20
2019-06-20T13:56:21.413Z,24.90
2019-06-20T13:58:54.149Z,24.80
2019-06-20T14:01:26.550Z,24.70
2019-06-20T14:03:58.558Z,24.60
2019-06-20T14:06:31.128Z,24.30
2019-06-20T14:09:04.885Z,24.20
2019-06-20T14:11:37.049Z,23.90
2019-06-20T14:14:09.098Z,23.90
2019-06-20T14:16:42.964Z,24.30
2019-06-20T14:19:15.350Z,24.50
2019-06-20T14:21:47.565Z,24.50
2019-06-20T14:24:19.501Z,24.60
2019-06-20T14:26:52.527Z,24.30
2019-06-20T14:29:25.290Z,24.30
2019-06-20T14:31:57.550Z,24.30
2019-06-20T14:34:29.973Z,24.20
2019-06-20T14:37:04.070Z,24.10
2019-06-20T14:39:36.118Z,24.00
2019-06-20T14:42:08.219Z,23.80
2019-06-20T14:44:40.280Z,23.80
2019-06-20T14:47:12.932Z,23.80
2019-06-20T14:49:44.839Z,23.60
2019-06-20T14:52:17.295Z,23.50
2019-06-20T14:54:49.894Z,23.60
2019-06-20T14:57:22.662Z,23.60
2019-06-20T14:59:54.609Z,23.70
2019-06-20T15:02:37.941Z,23.80
2019-06-20T15:05:00.780Z,24.00
2019-06-20T15:07:34.256Z,24.00
2019-06-20T15:10:06.358Z,24.30
2019-06-20T15:12:38.775Z,24.60
2019-06-20T15:15:11.808Z,25.00
2019-06-20T15:17:46.512Z,25.30
2019-06-20T15:20:18.497Z,25.50
2019-06-20T15:22:52.577Z,25.70
2019-06-20T15:25:24.879Z,26.00
2019-06-20T15:27:57.557Z,25.80
2019-06-20T15:30:29.778Z,26.00
2019-06-20T15:33:10.090Z,26.10
2019-06-20T15:35:36.060Z,25.90
2019-06-20T15:38:08.059Z,25.90
2019-06-20T15:40:40.277Z,26.10
2019-06-20T15:43:12.502Z,26.20
2019-06-20T15:45:44.926Z,26.30
2019-06-20T15:48:17.300Z,26.20
2019-06-20T15:50:49.625Z,26.30
2019-06-20T15:53:23.383Z,26.40
2019-06-20T15:55:55.436Z,25.90
2019-06-20T15:58:27.715Z,25.70
2019-06-20T16:00:59.889Z,25.70
2019-06-20T16:03:32.795Z,25.90
2019-06-20T16:06:12.759Z,26.00
2019-06-20T16:08:45.210Z,26.20
2019-06-20T16:11:17.131Z,26.10
2019-06-20T16:13:50.191Z,26.00
2019-06-20T16:16:22.654Z,26.00
2019-06-20T16:18:54.726Z,26.10
2019-06-20T16:21:27.044Z,26.40
2019-06-20T16:23:59.227Z,26.60
2019-06-20T16:26:31.617Z,26.60
2019-06-20T16:29:03.913Z,26.30
2019-06-20T16:31:36.347Z,26.00
2019-06-20T16:34:08.521Z,25.50
2019-06-20T16:36:40.783Z,25.30
2019-06-20T16:39:13.032Z,25.60
2019-06-20T16:41:45.374Z,25.40
2019-06-20T16:44:17.379Z,25.70
2019-06-20T16:46:49.501Z,25.70
2019-06-20T16:49:21.693Z,25.90
2019-06-20T16:51:53.925Z,26.00
2019-06-20T16:54:25.792Z,26.10
2019-06-20T16:56:58.149Z,26.20
2019-06-20T16:59:30.107Z,25.90
2019-06-20T17:02:02.373Z,25.50
2019-06-20T17:04:34.628Z,25.40
2019-06-20T17:07:07.933Z,25.60
2019-06-20T17:09:40.016Z,25.60
2019-06-20T17:12:12.318Z,25.60
2019-06-20T17:14:44.321Z,25.40
2019-06-20T17:17:16.434Z,25.10
2019-06-20T17:19:49.327Z,25.00
2019-06-20T17:22:21.830Z,24.90
2019-06-20T17:24:53.669Z,24.90
2019-06-20T17:27:26.275Z,25.00
2019-06-20T17:29:58.289Z,25.10
2019-06-20T17:32:31.470Z,25.30
2019-06-20T17:35:04.653Z,25.20
2019-06-20T17:37:36.749Z,25.30
2019-06-20T17:40:10.319Z,25.50
2019-06-20T17:42:42.754Z,25.30
2019-06-20T17:45:15.506Z,25.30
2019-06-20T17:47:47.654Z,25.40
2019-06-20T17:50:20.029Z,25.40
2019-06-20T17:52:52.304Z,25.30
2019-06-20T17:55:24.296Z,25.20
2019-06-20T17:57:56.358Z,25.20
2019-06-20T18:00:30.255Z,25.10
2019-06-20T18:03:02.804Z,25.10
2019-06-20T18:05:35.809Z,25.00
2019-06-20T18:08:15.041Z,25.00
2019-06-20T18:10:42.123Z,25.00
2019-06-20T18:13:15.259Z,25.00
2019-06-20T18:15:47.645Z,25.10
2019-06-20T18:18:20.054Z,25.20
2019-06-20T18:20:52.223Z,25.30
2019-06-20T18:23:24.780Z,25.30
2019-06-20T18:25:56.879Z,25.30
2019-06-20T18:28:30.468Z,25.30
2019-06-20T18:31:02.387Z,25.10
2019-06-20T18:33:34.914Z,25.10
2019-06-20T18:36:06.794Z,25.00
2019-06-20T18:38:39.968Z,25.00
2019-06-20T18:41:11.922Z,25.10
2019-06-20T18:43:43.992Z,25.00
2019-06-20T18:46:15.886Z,25.00
2019-06-20T18:48:48.069Z,25.00
2019-06-20T18:51:20.895Z,25.00
2019-06-20T18:53:53.402Z,24.90
2019-06-20T18:56:25.273Z,24.80
2019-06-20T18:58:57.443Z,24.80
2019-06-20T19:01:29.848Z,24.70
2019-06-20T19:04:02.071Z,24.60
2019-06-20T19:06:36.293Z,24.60
2019-06-20T19:09:08.875Z,24.70
2019-06-20T19:11:40.890Z,24.70
2019-06-20T19:14:13.413Z,24.60
2019-06-20T19:16:45.857Z,24.50
2019-06-20T19:19:20.865Z,24.60
2019-06-20T19:21:53.015Z,24.50
2019-06-20T19:24:25.160Z,24.40
2019-06-20T19:26:57.339Z,24.40
2019-06-20T19:29:29.696Z,24.30
2019-06-20T19:32:01.701Z,24.10
2019-06-20T19:34:34.313Z,23.90
2019-06-20T19:37:06.396Z,23.60
2019-06-20T19:39:39.388Z,23.40
2019-06-20T19:42:12.153Z,23.10
2019-06-20T19:47:17.458Z,22.70
2019-06-20T19:49:50.393Z,22.80
2019-06-20T19:52:22.681Z,22.90
2019-06-20T19:54:54.783Z,23.00
2019-06-20T19:57:27.347Z,23.00
2019-06-20T20:00:00.199Z,23.00
2019-06-20T20:02:33.059Z,23.10
2019-06-20T20:05:18.390Z,23.00
2019-06-20T20:07:39.590Z,23.00
2019-06-20T20:10:12.082Z,23.10
2019-06-20T20:12:44.275Z,23.00
2019-06-20T20:15:19.705Z,23.10
2019-06-20T20:17:51.844Z,23.00
2019-06-20T20:20:24.338Z,23.00
2019-06-20T20:22:56.232Z,23.00
2019-06-20T20:25:28.393Z,23.00
2019-06-20T20:28:00.623Z,23.00
2019-06-20T20:30:32.869Z,23.10
2019-06-20T20:33:05.571Z,23.10
2019-06-20T20:35:37.684Z,23.10
2019-06-20T20:38:10.728Z,23.20
2019-06-20T20:40:43.208Z,23.20
2019-06-20T20:43:15.780Z,23.20
2019-06-20T20:45:47.888Z,23.20
2019-06-20T20:48:21.357Z,23.20
2019-06-20T20:50:53.682Z,23.20
2019-06-20T20:53:26.496Z,23.20
2019-06-20T20:56:02.169Z,23.20
2019-06-20T20:58:32.692Z,23.20
2019-06-20T21:01:28.820Z,23.20
2019-06-20T21:04:01.072Z,23.20
2019-06-20T21:06:33.098Z,23.20
2019-06-20T21:09:06.327Z,23.20
2019-06-20T21:11:38.675Z,23.20
2019-06-20T21:14:11.205Z,23.20
2019-06-20T21:16:43.277Z,23.20
2019-06-20T21:19:15.572Z,23.20
2019-06-20T21:21:47.555Z,23.10
2019-06-20T21:24:20.392Z,23.10
2019-06-20T21:26:52.777Z,23.10
2019-06-20T21:29:25.171Z,23.10
2019-06-20T21:31:57.495Z,23.10
2019-06-20T21:34:30.013Z,23.20
2019-06-20T21:37:03.276Z,23.10
2019-06-20T21:39:38.672Z,23.10
2019-06-20T21:42:09.490Z,23.00
2019-06-20T21:44:41.848Z,23.00
2019-06-20T21:47:13.568Z,23.10
2019-06-20T21:49:45.960Z,23.10
2019-06-20T21:52:17.633Z,23.20
2019-06-20T21:54:49.789Z,23.20
2019-06-20T21:57:22.686Z,23.10
2019-06-20T21:59:54.339Z,23.20
2019-06-20T22:02:26.131Z,23.20
2019-06-20T22:04:57.869Z,23.20
2019-06-20T22:07:31.474Z,23.10
2019-06-20T22:10:04.156Z,23.10
2019-06-20T22:12:36.128Z,23.10
2019-06-20T22:15:09.325Z,23.20
2019-06-20T22:17:41.352Z,23.10
2019-06-20T22:20:13.427Z,23.10
2019-06-20T22:22:45.066Z,23.00
2019-06-20T22:25:17.434Z,22.90
2019-06-20T22:27:49.536Z,22.80
2019-06-20T22:30:46.871Z,22.60
2019-06-20T22:33:19.048Z,22.50
2019-06-20T22:35:50.785Z,22.50
2019-06-20T22:38:23.385Z,22.30
2019-06-20T22:40:55.344Z,22.30
2019-06-20T22:43:28.148Z,22.20
2019-06-20T22:46:00.492Z,22.10
2019-06-20T22:48:32.668Z,22.10
2019-06-20T22:51:04.380Z,22.10
2019-06-20T22:53:36.808Z,22.10
2019-06-20T22:58:40.735Z,22.00
2019-06-20T23:01:12.493Z,22.00
2019-06-20T23:03:44.393Z,22.00
2019-06-20T23:06:16.398Z,22.00
2019-06-20T23:08:48.453Z,21.90
2019-06-20T23:11:20.459Z,21.80
2019-06-20T23:13:52.636Z,21.80
2019-06-20T23:16:24.395Z,21.80
2019-06-20T23:18:56.658Z,21.80
2019-06-20T23:21:28.706Z,21.70
2019-06-20T23:24:00.353Z,21.70
2019-06-20T23:26:32.120Z,21.60
2019-06-20T23:29:22.537Z,21.70
2019-06-20T23:31:54.830Z,21.70
2019-06-20T23:34:27.085Z,21.80
2019-06-20T23:37:12.296Z,21.70
2019-06-20T23:39:33.709Z,21.70
2019-06-20T23:42:06.400Z,21.70
2019-06-20T23:44:39.570Z,21.70
2019-06-20T23:47:12.023Z,21.70
2019-06-20T23:49:43.805Z,21.70
2019-06-20T23:52:19.313Z,21.60
2019-06-20T23:54:51.182Z,21.60
2019-06-20T23:57:22.811Z,21.50
2019-06-20T23:59:56.095Z,21.50
